Time;durP1;ratioP1;P1;durP2;ratioP2;P2;SDS_P1;SDS_P2;PMS_P1;PMS_P2;Temp;Humidity;BMP_temperature;BMP_pressure;BME280_temperature;BME280_humidity;BME280_pressure;Samples;Min_cycle;Max_cycle;Signal;HPM_P1;HPM_P2
2021/07/24 03:15:28;;;;;;;9.28;8.33;;;;;;;17.38;100.00;100738.87;1576493;88;21081;-92
2021/07/24 03:18:22;;;;;;;18.80;9.10;;;;;;;17.39;100.00;100739.19;1545491;89;21228;-93
2021/07/24 03:28:21;;;;;;;;;;;;;;;;;;;;;
2021/07/24 04:20:24;;;;;;;14.10;11.97;;;;;;;18.10;100.00;100760.05;1574631;90;21703;-92
2021/07/24 05:08:28;;;;;;;14.50;7.08;;;;;;;19.14;100.00;100778.90;1565478;89;21071;-92
2021/07/24 05:11:58;;;;;;;;;;;;;;;;;;;;;
2021/07/24 05:15:12;;;;;;;;;;;;;;;;;;;;;
2021/07/24 05:19:12;;;;;;;;;;;;;;;;;;;;;
2021/07/24 05:25:05;;;;;;;11.63;6.67;;;;;;;19.79;100.00;100784.97;1543542;89;22010;-94
2021/07/24 05:27:42;;;;;;;;;;;;;;;;;;;;;
2021/07/24 05:30:45;;;;;;;;;;;;;;;;;;;;;
2021/07/24 05:33:40;;;;;;;15.83;9.50;;;;;;;20.08;100.00;100792.77;1593505;88;21054;-90
2021/07/24 05:36:25;;;;;;;11.48;6.80;;;;;;;20.16;100.00;100792.73;1559998;89;21054;-96
2021/07/24 05:42:35;;;;;;;12.65;6.67;;;;;;;20.31;100.00;100798.10;1585571;87;21104;-90
2021/07/24 05:45:25;;;;;;;17.95;11.00;;;;;;;20.42;100.00;100796.87;1590582;87;21404;-91
2021/07/24 05:47:52;;;;;;;17.32;9.75;;;;;;;20.47;100.00;100798.98;1581761;88;21125;-87
2021/07/24 05:50:41;;;;;;;10.70;6.92;;;;;;;20.54;100.00;100797.80;1573950;89;21143;-90
2021/07/24 06:00:51;;;;;;;;;;;;;;;;;;;;;
2021/07/24 06:03:14;;;;;;;11.33;7.42;;;;;;;20.87;100.00;100798.89;1458246;96;26636;-90
2021/07/24 06:05:41;;;;;;;11.13;7.23;;;;;;;21.01;100.00;100801.22;1430372;98;21105;-86
2021/07/24 06:13:12;;;;;;;;;;;;;;;;;;;;;
2021/07/24 06:20:19;;;;;;;14.80;6.40;;;;;;;21.40;100.00;100810.76;1417890;97;21517;-90
2021/07/24 06:22:51;;;;;;;9.18;6.33;;;;;;;21.52;100.00;100813.77;1445092;94;21118;-87
2021/07/24 06:25:18;;;;;;;10.28;6.08;;;;;;;21.60;100.00;100815.03;1466724;96;21213;-89
2021/07/24 06:27:54;;;;;;;9.55;6.28;;;;;;;21.70;100.00;100807.64;1433311;96;21566;-90
2021/07/24 06:42:36;;;;;;;9.53;6.55;;;;;;;22.25;100.00;100812.55;1508154;91;21209;-89
2021/07/24 06:45:05;;;;;;;11.95;6.85;;;;;;;22.43;100.00;100810.84;1555186;89;21157;-90
2021/07/24 06:47:37;;;;;;;10.13;6.70;;;;;;;22.54;100.00;100813.50;1579097;89;21844;-91
2021/07/24 12:03:59;;;;;;;;;;;;;;;;;;;;;
2021/07/24 14:06:37;;;;;;;;;;;;;;;;;;;;;
2021/07/24 14:22:42;;;;;;;6.85;4.50;;;;;;;27.95;46.34;100781.75;1251830;107;21184;-89
2021/07/24 14:25:21;;;;;;;5.90;5.15;;;;;;;27.89;47.10;100783.17;1352275;100;21103;-88
2021/07/24 14:27:50;;;;;;;6.92;5.67;;;;;;;27.95;49.33;100779.08;1380907;101;21128;-87
2021/07/24 14:30:21;;;;;;;8.95;5.12;;;;;;;27.99;46.01;100778.09;1372885;98;21352;-87
2021/07/24 14:32:52;;;;;;;11.03;5.83;;;;;;;28.06;44.09;100779.34;1514459;92;21046;-86
2021/07/24 14:35:19;;;;;;;8.48;5.25;;;;;;;28.19;44.81;100777.84;1488372;94;21188;-86
2021/07/24 14:37:46;;;;;;;11.18;8.13;;;;;;;28.29;45.40;100778.10;1519354;93;21708;-88
2021/07/24 14:40:15;;;;;;;6.80;5.60;;;;;;;28.37;45.47;100784.16;1525260;92;21069;-88
2021/07/24 14:42:41;;;;;;;7.00;5.78;;;;;;;28.42;46.25;100784.28;1577310;87;21895;-88
2021/07/24 14:45:10;;;;;;;10.78;6.42;;;;;;;28.43;45.15;100784.58;1598837;88;21076;-87
2021/07/24 14:47:37;;;;;;;10.03;7.50;;;;;;;28.43;44.78;100785.41;1577292;89;21182;-87
2021/07/24 14:50:07;;;;;;;7.15;5.62;;;;;;;28.41;44.70;100782.64;1639418;86;21078;-86
2021/07/24 14:52:35;;;;;;;13.35;9.75;;;;;;;28.37;45.59;100778.81;1580780;86;21094;-89
2021/07/24 14:55:04;;;;;;;10.78;6.80;;;;;;;28.31;46.20;100788.06;1633738;86;20983;-89
2021/07/24 14:57:31;;;;;;;9.85;8.80;;;;;;;28.27;44.95;100788.75;1639288;86;21742;-89
2021/07/24 14:59:58;;;;;;;6.15;5.55;;;;;;;28.23;46.85;100797.77;1648235;85;21092;-90
2021/07/24 15:02:25;;;;;;;8.63;6.75;;;;;;;28.16;48.61;100791.70;1635955;85;21018;-89
2021/07/24 15:04:53;;;;;;;8.58;7.67;;;;;;;28.08;49.61;100797.38;1649594;86;21089;-89
2021/07/24 15:07:20;;;;;;;8.00;5.80;;;;;;;28.01;47.61;100792.07;1642254;85;21034;-91
2021/07/24 15:09:49;;;;;;;6.72;6.12;;;;;;;27.99;46.83;100801.67;1616549;86;21069;-90
2021/07/24 15:12:18;;;;;;;9.50;7.42;;;;;;;27.99;49.65;100799.00;1640026;85;21057;-90
2021/07/24 15:14:45;;;;;;;15.83;7.75;;;;;;;27.97;49.72;100799.73;1638137;86;21121;-89
2021/07/24 15:17:12;;;;;;;6.90;5.75;;;;;;;27.94;46.92;100805.53;1632859;86;21059;-89
2021/07/24 15:19:39;;;;;;;10.72;8.23;;;;;;;27.90;50.78;100803.03;1623514;86;21239;-86
2021/07/24 15:22:06;;;;;;;6.25;5.47;;;;;;;27.84;49.41;100807.95;1636284;86;21734;-87
2021/07/24 15:24:33;;;;;;;7.15;5.78;;;;;;;27.76;49.00;100805.06;1645406;86;21058;-86
2021/07/24 15:27:05;;;;;;;7.00;4.85;;;;;;;27.66;49.53;100810.95;1584018;89;21092;-86
2021/07/24 15:29:34;;;;;;;8.03;6.17;;;;;;;27.52;52.22;100806.27;1611857;86;21065;-87
2021/07/24 15:32:02;;;;;;;7.55;5.70;;;;;;;27.42;51.48;100813.16;1604368;86;21147;-88
2021/07/24 15:34:31;;;;;;;24.98;18.37;;;;;;;27.34;54.54;100807.57;1605505;87;21085;-89
2021/07/24 15:37:00;;;;;;;19.87;17.50;;;;;;;27.26;54.28;100808.70;1570480;89;21082;-88
2021/07/24 15:39:27;;;;;;;14.10;10.28;;;;;;;27.18;53.85;100805.78;1563532;89;21188;-87
2021/07/24 15:41:54;;;;;;;37.60;27.45;;;;;;;27.16;53.29;100805.71;1577722;89;21129;-88
2021/07/24 15:44:21;;;;;;;13.03;11.22;;;;;;;27.16;54.14;100808.38;1589124;88;21122;-88
2021/07/24 15:46:48;;;;;;;9.98;8.28;;;;;;;27.15;54.49;100806.25;1588712;89;21070;-88
2021/07/24 15:49:16;;;;;;;6.47;5.78;;;;;;;27.15;54.44;100812.09;1617168;87;21537;-87
2021/07/24 15:51:44;;;;;;;9.70;6.97;;;;;;;27.13;53.03;100811.48;1598755;89;21134;-89
2021/07/24 15:54:11;;;;;;;14.87;10.50;;;;;;;27.10;53.70;100813.28;1578565;89;21499;-86
2021/07/24 15:56:44;;;;;;;19.07;11.48;;;;;;;27.08;54.80;100818.86;1606778;88;21049;-88
2021/07/24 15:59:11;;;;;;;11.73;7.67;;;;;;;27.07;55.15;100824.70;1563713;89;21648;-89
2021/07/24 16:01:40;;;;;;;11.90;6.33;;;;;;;27.07;55.74;100821.23;1571127;89;21166;-87
2021/07/24 16:04:08;;;;;;;11.90;9.00;;;;;;;27.06;55.95;100820.92;1610245;87;21109;-89
2021/07/24 16:06:36;;;;;;;9.88;6.85;;;;;;;27.00;56.77;100823.95;1652157;86;21105;-87
2021/07/24 16:09:03;;;;;;;8.03;5.87;;;;;;;26.93;58.00;100827.20;1606539;87;21088;-88
2021/07/24 16:11:30;;;;;;;6.87;5.55;;;;;;;26.83;61.26;100827.71;1635038;86;21077;-88
2021/07/24 16:13:57;;;;;;;8.83;5.87;;;;;;;26.73;67.04;100836.69;1651946;86;21590;-87
2021/07/24 16:16:26;;;;;;;9.05;5.55;;;;;;;26.61;68.67;100832.04;1634062;86;21128;-89
2021/07/24 16:18:56;;;;;;;6.90;6.10;;;;;;;26.52;70.33;100832.53;1611291;86;21645;-89
2021/07/24 16:21:23;;;;;;;8.20;5.50;;;;;;;26.43;69.32;100831.45;1647853;85;21093;-88
2021/07/24 16:23:50;;;;;;;6.62;5.85;;;;;;;26.36;70.18;100832.02;1626892;86;21060;-89
2021/07/24 16:26:20;;;;;;;6.08;5.47;;;;;;;26.31;69.77;100825.19;1649051;86;21073;-88
2021/07/24 16:28:47;;;;;;;7.35;5.90;;;;;;;26.26;69.71;100831.66;1638995;86;21580;-88
2021/07/24 16:31:16;;;;;;;8.40;5.55;;;;;;;26.23;71.21;100836.12;1635281;86;21080;-89
2021/07/24 16:33:43;;;;;;;9.43;6.40;;;;;;;26.19;72.96;100834.89;1651658;86;21096;-88
2021/07/24 16:36:16;;;;;;;8.93;5.95;;;;;;;26.14;76.31;100837.70;1643678;86;21138;-86
2021/07/24 16:38:43;;;;;;;11.90;6.22;;;;;;;26.07;80.20;100840.89;1635149;86;21092;-88
2021/07/24 16:41:14;;;;;;;23.80;6.62;;;;;;;25.96;90.88;100833.55;1650188;85;21100;-85
2021/07/24 16:44:14;;;;;;;18.55;7.28;;;;;;;25.84;90.44;100837.39;1576298;89;21149;-88
2021/07/24 17:03:03;;;;;;;64.25;9.90;;;;;;;25.28;100.00;100845.44;1587776;88;21111;-92
2021/07/24 17:05:43;;;;;;;57.40;17.40;;;;;;;25.23;100.00;100847.38;1580850;88;21046;-93
2021/07/24 17:09:02;;;;;;;106.30;40.73;;;;;;;25.21;100.00;100854.76;1579754;88;21061;-92
2021/07/24 17:11:45;;;;;;;89.58;50.55;;;;;;;25.19;100.00;100846.14;1545127;88;21154;-95
2021/07/24 17:15:08;;;;;;;86.57;54.93;;;;;;;25.18;100.00;100848.50;1578197;88;21974;-91
2021/07/24 17:17:26;;;;;;;;;;;;;;;;;;;;;
2021/07/24 17:20:34;;;;;;;;;;;;;;;;;;;;;
2021/07/24 17:23:28;;;;;;;;;;;;;;;;;;;;;
2021/07/24 17:53:47;;;;;;;;;;;;;;;;;;;;;
2021/07/24 17:56:41;;;;;;;;;;;;;;;;;;;;;
2021/07/24 17:59:21;;;;;;;31.57;13.62;;;;;;;23.86;100.00;100888.73;1287594;109;21316;-93
2021/07/24 18:01:52;;;;;;;36.98;13.70;;;;;;;23.79;100.00;100892.67;1325088;104;21625;-93
2021/07/24 18:04:34;;;;;;;;;;;;;;;;;;;;;
2021/07/24 18:06:57;;;;;;;22.20;12.53;;;;;;;23.71;100.00;100897.66;1315003;103;21089;-94
2021/07/24 18:09:30;;;;;;;26.48;12.70;;;;;;;23.64;100.00;100894.11;1417455;98;21243;-93
2021/07/24 18:11:59;;;;;;;20.52;14.40;;;;;;;23.58;100.00;100907.70;1485048;94;21191;-91
2021/07/24 18:14:39;;;;;;;21.50;14.07;;;;;;;23.49;100.00;100906.20;1495582;94;21136;-94
2021/07/24 18:17:02;;;;;;;20.45;14.83;;;;;;;23.41;100.00;100911.66;1434375;98;21144;-91
2021/07/24 18:19:42;;;;;;;18.57;13.18;;;;;;;23.33;100.00;100910.48;1460967;96;21146;-94
2021/07/24 18:22:31;;;;;;;;;;;;;;;;;;;;;
2021/07/24 18:24:51;;;;;;;;;;;;;;;;;;;;;
2021/07/24 18:27:32;;;;;;;;;;;;;;;;;;;;;
2021/07/24 18:29:52;;;;;;;35.10;14.90;;;;;;;23.16;100.00;100918.17;1374836;101;21627;-92
2021/07/24 18:32:36;;;;;;;;;;;;;;;;;;;;;
2021/07/24 18:35:03;;;;;;;;;;;;;;;;;;;;;
2021/07/24 18:37:52;;;;;;;;;;;;;;;;;;;;;
2021/07/24 18:40:22;;;;;;;;;;;;;;;;;;;;;
2021/07/24 18:42:56;;;;;;;;;;;;;;;;;;;;;
2021/07/24 18:45:22;;;;;;;32.70;17.05;;;;;;;22.93;100.00;100922.86;1422368;97;21167;-93
2021/07/24 18:48:03;;;;;;;;;;;;;;;;;;;;;
2021/07/24 18:50:39;;;;;;;;;;;;;;;;;;;;;
2021/07/24 18:53:14;;;;;;;;;;;;;;;;;;;;;
2021/07/24 18:55:35;;;;;;;26.15;20.72;;;;;;;22.86;100.00;100922.81;1439373;96;21167;-91
2021/07/24 18:58:03;;;;;;;29.55;20.40;;;;;;;22.81;100.00;100923.38;1407521;99;21161;-91
2021/07/24 19:00:33;;;;;;;29.80;20.85;;;;;;;22.79;100.00;100928.57;1442193;98;21633;-94
2021/07/24 19:03:01;;;;;;;27.80;22.42;;;;;;;22.76;100.00;100931.07;1493408;93;21064;-89
2021/07/24 19:05:28;;;;;;;27.15;20.88;;;;;;;22.72;100.00;100928.98;1521247;92;21937;-89
2021/07/24 19:07:57;;;;;;;31.80;21.60;;;;;;;22.69;100.00;100929.70;1521609;92;21227;-92
2021/07/24 19:10:39;;;;;;;;;;;;;;;;;;;;;
2021/07/24 19:12:57;;;;;;;32.00;22.87;;;;;;;22.64;100.00;100939.22;1612930;87;21108;-91
2021/07/24 19:23:21;;;;;;;;;;;;;;;;;;;;;
2021/07/24 19:31:16;;;;;;;;;;;;;;;;;;;;;
2021/07/24 19:55:07;;;;;;;;;;;;;;;;;;;;;
2021/07/24 20:03:45;;;;;;;;;;;;;;;;;;;;;
